createdAt,value
2018-03-19T00:02:26.014Z,97202.54
2018-03-19T00:04:55.024Z,97200.58
2018-03-19T00:07:24.114Z,97199.68
2018-03-19T00:09:54.158Z,97202.16
2018-03-19T00:12:23.180Z,97198.88
2018-03-19T00:14:52.604Z,97201.58
2018-03-19T00:17:21.567Z,97194.16
2018-03-19T00:19:50.584Z,97200.91
2018-03-19T00:22:19.711Z,97203.09
2018-03-19T00:24:48.887Z,97208.57
2018-03-19T00:27:17.873Z,97207.58
2018-03-19T00:29:49.214Z,97209.17
2018-03-19T00:32:18.958Z,97212.91
2018-03-19T00:34:47.969Z,97207.37
2018-03-19T00:37:17.084Z,97205.50
2018-03-19T00:39:46.064Z,97210.80
2018-03-19T00:42:15.125Z,97205.91
2018-03-19T00:44:44.167Z,97204.61
2018-03-19T00:47:13.675Z,97205.44
2018-03-19T00:49:42.746Z,97200.50
2018-03-19T00:52:11.803Z,97201.47
2018-03-19T00:54:40.861Z,97204.58
2018-03-19T00:57:09.981Z,97203.63
2018-03-19T00:59:39.139Z,97204.73
2018-03-19T01:02:08.354Z,97202.58
2018-03-19T01:04:37.368Z,97199.44
2018-03-19T01:07:06.432Z,97201.80
2018-03-19T01:09:35.525Z,97200.16
2018-03-19T01:12:04.704Z,97204.80
2018-03-19T01:14:33.808Z,97195.43
2018-03-19T01:17:03.116Z,97200.02
2018-03-19T01:19:32.186Z,97196.82
2018-03-19T01:22:01.264Z,97199.81
2018-03-19T01:24:30.326Z,97197.03
2018-03-19T01:27:00.688Z,97190.97
2018-03-19T01:29:29.922Z,97194.26
2018-03-19T01:31:59.016Z,97190.09
2018-03-19T01:34:28.162Z,97193.83
2018-03-19T01:36:57.127Z,97186.25
2018-03-19T01:39:26.152Z,97186.75
2018-03-19T01:41:55.271Z,97185.80
2018-03-19T01:44:24.475Z,97186.45
2018-03-19T01:46:53.563Z,97193.55
2018-03-19T01:49:22.640Z,97194.94
2018-03-19T01:51:51.698Z,97188.64
2018-03-19T01:54:20.730Z,97194.19
2018-03-19T01:56:49.886Z,97187.88
2018-03-19T01:59:18.894Z,97185.98
2018-03-19T02:01:48.850Z,97187.45
2018-03-19T02:04:18.114Z,97182.81
2018-03-19T02:06:47.914Z,97185.03
2018-03-19T02:09:16.994Z,97190.80
2018-03-19T02:11:46.068Z,97190.53
2018-03-19T02:14:15.216Z,97187.41
2018-03-19T02:16:44.316Z,97181.56
2018-03-19T02:19:13.416Z,97182.34
2018-03-19T02:21:42.580Z,97184.40
2018-03-19T02:24:21.145Z,97171.98
2018-03-19T02:26:50.378Z,97180.89
2018-03-19T02:29:19.538Z,97177.95
2018-03-19T02:31:49.443Z,97180.00
2018-03-19T02:34:19.188Z,97174.57
2018-03-19T02:36:48.413Z,97174.95
2018-03-19T02:39:17.637Z,97171.78
2018-03-19T02:41:46.844Z,97180.65
2018-03-19T02:44:27.836Z,97170.83
2018-03-19T02:46:57.319Z,97181.98
2018-03-19T02:49:26.348Z,97186.22
2018-03-19T02:51:55.479Z,97176.57
2018-03-19T02:54:24.501Z,97182.72
2018-03-19T02:56:53.609Z,97180.37
2018-03-19T02:59:22.663Z,97181.52
2018-03-19T03:01:51.961Z,97182.38
2018-03-19T03:04:21.065Z,97184.22
2018-03-19T03:06:50.159Z,97189.78
2018-03-19T03:09:19.391Z,97187.69
2018-03-19T03:11:49.460Z,97188.79
2018-03-19T03:14:18.679Z,97183.23
2018-03-19T03:16:47.759Z,97184.74
2018-03-19T03:19:16.905Z,97182.92
2018-03-19T03:21:46.009Z,97192.97
2018-03-19T03:24:15.059Z,97191.70
2018-03-19T03:26:44.750Z,97193.83
2018-03-19T03:29:13.850Z,97195.13
2018-03-19T03:31:43.165Z,97197.36
2018-03-19T03:34:12.246Z,97189.02
2018-03-19T03:36:42.419Z,97195.16
2018-03-19T03:39:11.714Z,97186.52
2018-03-19T03:41:40.810Z,97191.20
2018-03-19T03:44:09.886Z,97187.91
2018-03-19T03:46:39.003Z,97192.51
2018-03-19T03:52:00.491Z,97192.34
2018-03-19T03:54:29.686Z,97195.08
2018-03-19T03:56:58.680Z,97192.75
2018-03-19T03:59:27.894Z,97194.87
2018-03-19T04:01:56.942Z,97197.77
2018-03-19T04:04:25.973Z,97196.91
2018-03-19T04:06:55.647Z,97194.08
2018-03-19T04:09:24.648Z,97193.34
2018-03-19T04:11:53.754Z,97195.77
2018-03-19T04:14:22.808Z,97204.23
2018-03-19T04:16:51.883Z,97197.48
2018-03-19T04:19:20.939Z,97196.66
2018-03-19T04:21:50.127Z,97198.80
2018-03-19T04:24:19.159Z,97200.74
2018-03-19T04:26:48.380Z,97197.23
2018-03-19T04:29:17.461Z,97199.28
2018-03-19T04:31:46.689Z,97191.34
2018-03-19T04:34:15.709Z,97193.04
2018-03-19T04:36:44.701Z,97191.56
2018-03-19T04:39:13.725Z,97192.40
2018-03-19T04:41:42.725Z,97185.57
2018-03-19T04:44:19.264Z,97181.45
2018-03-19T04:46:48.414Z,97189.09
2018-03-19T04:49:17.433Z,97180.22
2018-03-19T04:51:46.411Z,97185.32
2018-03-19T04:54:15.850Z,97186.76
2018-03-19T04:56:45.245Z,97181.36
2018-03-19T04:59:14.355Z,97183.70
2018-03-19T05:01:43.449Z,97186.30
2018-03-19T05:04:12.558Z,97190.81
2018-03-19T05:06:41.731Z,97188.67
2018-03-19T05:09:19.766Z,97198.81
2018-03-19T05:11:50.212Z,97197.86
2018-03-19T05:14:19.354Z,97195.94
2018-03-19T05:16:48.655Z,97201.72
2018-03-19T05:19:18.175Z,97201.90
2018-03-19T05:21:47.202Z,97203.45
2018-03-19T05:24:16.194Z,97207.23
2018-03-19T05:26:45.270Z,97199.61
2018-03-19T05:29:19.788Z,97202.52
2018-03-19T05:31:49.966Z,97206.25
2018-03-19T05:34:19.760Z,97212.08
2018-03-19T05:36:49.261Z,97217.56
2018-03-19T05:39:18.897Z,97214.10
2018-03-19T05:41:48.127Z,97214.94
2018-03-19T05:44:18.127Z,97221.55
2018-03-19T05:46:47.201Z,97221.34
2018-03-19T05:49:17.340Z,97226.78
2018-03-19T05:51:46.522Z,97224.70
2018-03-19T05:54:15.627Z,97224.02
2018-03-19T05:56:52.450Z,97229.24
2018-03-19T05:59:21.491Z,97227.76
2018-03-19T06:01:50.604Z,97229.84
2018-03-19T06:04:19.599Z,97235.30
2018-03-19T06:06:48.713Z,97235.76
2018-03-19T06:09:17.892Z,97234.11
2018-03-19T06:11:49.331Z,97238.30
2018-03-19T06:14:18.373Z,97242.91
2018-03-19T06:16:47.457Z,97239.23
2018-03-19T06:19:16.616Z,97241.80
2018-03-19T06:21:45.645Z,97248.66
2018-03-19T06:24:14.956Z,97247.44
2018-03-19T06:26:44.042Z,97245.95
2018-03-19T06:29:15.327Z,97247.67
2018-03-19T06:31:44.440Z,97251.47
2018-03-19T06:34:13.535Z,97253.38
2018-03-19T06:36:42.838Z,97261.70
2018-03-19T06:39:16.926Z,97257.27
2018-03-19T06:41:46.019Z,97255.91
2018-03-19T06:44:15.039Z,97256.95
2018-03-19T06:46:44.318Z,97251.38
2018-03-19T06:49:14.500Z,97258.05
2018-03-19T06:51:43.643Z,97267.70
2018-03-19T06:54:12.771Z,97268.88
2018-03-19T06:56:43.173Z,97264.52
2018-03-19T06:59:12.251Z,97265.52
2018-03-19T07:01:41.212Z,97267.87
2018-03-19T07:04:11.470Z,97268.91
2018-03-19T07:06:41.324Z,97275.72
2018-03-19T07:09:10.445Z,97271.95
2018-03-19T07:11:39.643Z,97281.75
2018-03-19T07:14:08.938Z,97286.09
2018-03-19T07:16:37.963Z,97284.09
2018-03-19T07:19:07.054Z,97290.92
2018-03-19T07:21:36.441Z,97285.36
2018-03-19T07:24:05.618Z,97284.45
2018-03-19T07:26:34.738Z,97282.27
2018-03-19T07:29:03.813Z,97288.89
2018-03-19T07:31:33.149Z,97288.78
2018-03-19T07:34:02.135Z,97289.81
2018-03-19T07:36:31.203Z,97286.96
2018-03-19T07:39:00.396Z,97294.97
2018-03-19T07:41:37.396Z,97290.05
2018-03-19T07:44:06.488Z,97293.70
2018-03-19T07:46:35.535Z,97292.16
2018-03-19T07:49:10.459Z,97296.60
2018-03-19T07:51:39.541Z,97294.41
2018-03-19T07:54:08.551Z,97289.88
2018-03-19T07:56:37.689Z,97296.25
2018-03-19T07:59:09.109Z,97287.72
2018-03-19T08:01:38.085Z,97296.91
2018-03-19T08:04:07.140Z,97295.90
2018-03-19T08:06:36.340Z,97300.52
2018-03-19T08:09:05.633Z,97298.57
2018-03-19T08:11:34.878Z,97291.70
2018-03-19T08:14:03.966Z,97294.80
2018-03-19T08:16:33.017Z,97288.50
2018-03-19T08:19:02.018Z,97289.48
2018-03-19T08:21:31.306Z,97289.23
2018-03-19T08:24:00.404Z,97291.28
2018-03-19T08:26:29.499Z,97294.09
2018-03-19T08:28:58.844Z,97299.75
2018-03-19T08:31:27.779Z,97296.17
2018-03-19T08:33:56.813Z,97298.98
2018-03-19T08:36:25.796Z,97305.55
2018-03-19T08:38:57.137Z,97305.20
2018-03-19T08:41:26.368Z,97303.20
2018-03-19T08:43:55.424Z,97299.76
2018-03-19T08:46:24.475Z,97299.10
2018-03-19T08:48:53.860Z,97302.81
2018-03-19T08:51:23.045Z,97297.28
2018-03-19T08:53:52.216Z,97300.94
2018-03-19T08:56:25.184Z,97295.81
2018-03-19T08:58:54.650Z,97308.02
2018-03-19T09:01:23.724Z,97302.45
2018-03-19T09:03:52.899Z,97303.44
2018-03-19T09:06:22.041Z,97302.87
2018-03-19T09:08:51.025Z,97299.20
2018-03-19T09:11:20.628Z,97300.11
2018-03-19T09:13:49.695Z,97305.41
2018-03-19T09:16:18.918Z,97304.66
2018-03-19T09:18:52.815Z,97300.89
2018-03-19T09:21:21.871Z,97306.91
2018-03-19T09:23:51.230Z,97308.15
2018-03-19T09:26:20.304Z,97305.05
2018-03-19T09:28:50.769Z,97308.42
2018-03-19T09:31:19.844Z,97308.06
2018-03-19T09:33:49.724Z,97314.20
2018-03-19T09:36:19.364Z,97315.59
2018-03-19T09:38:48.494Z,97317.41
2018-03-19T09:41:17.611Z,97313.05
2018-03-19T09:43:48.072Z,97322.72
2018-03-19T09:46:17.227Z,97319.06
2018-03-19T09:48:47.014Z,97324.85
2018-03-19T09:51:20.773Z,97323.00
2018-03-19T09:53:49.889Z,97322.47
2018-03-19T09:56:18.961Z,97321.04
2018-03-19T09:58:48.097Z,97321.92
2018-03-19T10:01:17.670Z,97323.31
2018-03-19T10:03:49.020Z,97321.08
2018-03-19T10:06:18.030Z,97324.13
2018-03-19T10:08:47.007Z,97328.81
2018-03-19T10:11:16.046Z,97333.34
2018-03-19T10:13:45.413Z,97327.91
2018-03-19T10:16:14.392Z,97333.78
2018-03-19T10:18:44.644Z,97332.61
2018-03-19T10:21:15.913Z,97331.46
2018-03-19T10:23:45.044Z,97332.27
2018-03-19T10:26:14.150Z,97329.64
2018-03-19T10:28:44.574Z,97335.20
2018-03-19T10:31:13.991Z,97333.63
2018-03-19T10:33:44.249Z,97341.36
2018-03-19T10:36:13.520Z,97338.75
2018-03-19T10:38:42.522Z,97345.38
2018-03-19T10:41:11.579Z,97342.75
2018-03-19T10:43:41.911Z,97340.72
2018-03-19T10:46:11.111Z,97341.09
2018-03-19T10:48:42.051Z,97340.01
2018-03-19T10:51:11.037Z,97338.94
2018-03-19T10:53:41.404Z,97340.67
2018-03-19T10:56:10.472Z,97342.98
2018-03-19T10:58:39.670Z,97350.19
2018-03-19T11:01:13.521Z,97342.66
2018-03-19T11:03:45.766Z,97340.67
2018-03-19T11:06:18.867Z,97338.74
2018-03-19T11:08:48.016Z,97336.09
2018-03-19T11:11:17.047Z,97336.48
2018-03-19T11:13:50.351Z,97340.27
2018-03-19T11:16:19.461Z,97332.78
2018-03-19T11:18:48.776Z,97334.09
2018-03-19T11:21:18.241Z,97328.75
2018-03-19T11:23:47.466Z,97326.91
2018-03-19T11:26:16.868Z,97320.33
2018-03-19T11:28:46.226Z,97308.75
2018-03-19T11:31:15.358Z,97305.02
2018-03-19T11:33:44.384Z,97307.14
2018-03-19T11:36:13.736Z,97307.94
2018-03-19T11:38:42.705Z,97308.05
2018-03-19T11:41:11.937Z,97311.95
2018-03-19T11:43:41.320Z,97307.39
2018-03-19T11:46:10.368Z,97300.15
2018-03-19T11:48:39.448Z,97301.36
2018-03-19T11:51:08.956Z,97307.69
2018-03-19T11:53:38.102Z,97308.75
2018-03-19T11:56:07.323Z,97311.55
2018-03-19T11:58:36.735Z,97308.67
2018-03-19T12:01:06.001Z,97311.67
2018-03-19T12:03:35.052Z,97307.69
2018-03-19T12:06:04.506Z,97313.83
2018-03-19T12:08:33.492Z,97305.15
2018-03-19T12:11:02.649Z,97314.83
2018-03-19T12:13:32.054Z,97308.04
2018-03-19T12:16:01.055Z,97310.31
2018-03-19T12:18:30.332Z,97311.08
2018-03-19T12:21:01.149Z,97314.70
2018-03-19T12:23:30.247Z,97316.76
2018-03-19T12:26:00.050Z,97312.95
2018-03-19T12:28:30.349Z,97314.38
2018-03-19T12:30:59.588Z,97308.38
2018-03-19T12:33:30.030Z,97306.01
2018-03-19T12:36:00.775Z,97305.24
2018-03-19T12:38:29.924Z,97299.62
2018-03-19T12:40:59.038Z,97304.78
2018-03-19T12:43:28.424Z,97308.78
2018-03-19T12:45:57.546Z,97309.53
2018-03-19T12:48:26.553Z,97300.77
2018-03-19T12:50:56.020Z,97307.27
2018-03-19T12:53:25.122Z,97306.73
2018-03-19T12:55:54.249Z,97311.89
2018-03-19T12:58:23.264Z,97315.19
2018-03-19T13:00:52.415Z,97314.47
2018-03-19T13:03:21.460Z,97315.85
2018-03-19T13:05:50.655Z,97309.02
2018-03-19T13:08:19.739Z,97311.16
2018-03-19T13:10:48.820Z,97309.33
2018-03-19T13:13:18.185Z,97309.36
2018-03-19T13:15:47.177Z,97312.05
2018-03-19T13:18:16.273Z,97313.13
2018-03-19T13:20:46.251Z,97308.27
2018-03-19T13:23:15.369Z,97308.81
2018-03-19T13:25:44.480Z,97304.86
2018-03-19T13:28:13.551Z,97308.31
2018-03-19T13:30:42.625Z,97304.88
2018-03-19T13:33:13.983Z,97307.31
2018-03-19T13:35:42.965Z,97312.69
2018-03-19T13:38:12.064Z,97320.03
2018-03-19T13:40:41.281Z,97311.08
2018-03-19T13:43:10.457Z,97316.38
2018-03-19T13:45:39.540Z,97319.65
2018-03-19T13:48:08.790Z,97315.04
2018-03-19T13:50:37.879Z,97315.38
2018-03-19T13:53:06.972Z,97316.66
2018-03-19T13:55:36.001Z,97322.03
2018-03-19T13:58:05.011Z,97323.16
2018-03-19T14:00:37.732Z,97328.97
2018-03-19T14:03:07.055Z,97327.72
2018-03-19T14:05:37.121Z,97322.24
2018-03-19T14:08:06.134Z,97323.53
2018-03-19T14:10:35.310Z,97321.59
2018-03-19T14:13:06.171Z,97324.35
2018-03-19T14:15:35.291Z,97324.78
2018-03-19T14:18:04.474Z,97322.77
2018-03-19T14:20:33.730Z,97327.91
2018-03-19T14:23:02.960Z,97334.37
2018-03-19T14:25:32.779Z,97324.70
2018-03-19T14:28:02.196Z,97328.25
2018-03-19T14:30:31.300Z,97329.94
2018-03-19T14:33:00.582Z,97332.11
2018-03-19T14:35:30.256Z,97321.48
2018-03-19T14:37:59.324Z,97329.02
2018-03-19T14:40:28.481Z,97330.77
2018-03-19T14:42:57.966Z,97326.82
2018-03-19T14:45:27.098Z,97327.55
2018-03-19T14:47:56.179Z,97325.16
2018-03-19T14:50:25.619Z,97326.80
2018-03-19T14:52:54.704Z,97327.16
2018-03-19T14:55:23.750Z,97321.58
2018-03-19T14:57:56.930Z,97332.59
2018-03-19T15:00:26.015Z,97325.79
2018-03-19T15:02:55.318Z,97323.44
2018-03-19T15:05:24.769Z,97329.17
2018-03-19T15:07:53.813Z,97330.98
2018-03-19T15:10:22.908Z,97334.33
2018-03-19T15:12:53.490Z,97331.72
2018-03-19T15:15:22.934Z,97330.27
2018-03-19T15:17:51.934Z,97329.72
2018-03-19T15:20:21.814Z,97331.93
2018-03-19T15:22:50.852Z,97328.95
2018-03-19T15:25:20.611Z,97335.82
2018-03-19T15:27:51.133Z,97338.16
2018-03-19T15:30:20.267Z,97336.69
2018-03-19T15:32:49.290Z,97340.47
2018-03-19T15:35:19.872Z,97340.27
2018-03-19T15:37:49.733Z,97338.00
2018-03-19T15:40:18.853Z,97340.44
2018-03-19T15:42:48.916Z,97342.75
2018-03-19T15:45:18.763Z,97337.12
2018-03-19T15:47:48.186Z,97340.53
2018-03-19T15:50:18.012Z,97340.95
2018-03-19T15:52:47.353Z,97340.53
2018-03-19T15:55:16.467Z,97336.64
2018-03-19T15:57:45.910Z,97339.88
2018-03-19T16:00:14.930Z,97351.86
2018-03-19T16:02:44.038Z,97346.41
2018-03-19T16:05:13.484Z,97346.38
2018-03-19T16:07:42.662Z,97350.38
2018-03-19T16:10:11.736Z,97350.80
2018-03-19T16:12:41.160Z,97352.56
2018-03-19T16:15:10.232Z,97355.14
2018-03-19T16:17:39.578Z,97365.91
2018-03-19T16:20:21.569Z,97367.27
2018-03-19T16:22:50.623Z,97364.83
2018-03-19T16:25:20.177Z,97375.14
2018-03-19T16:27:49.591Z,97371.91
2018-03-19T16:30:18.820Z,97375.75
2018-03-19T16:32:48.472Z,97379.67
2018-03-19T16:35:17.752Z,97388.13
2018-03-19T16:37:46.947Z,97393.14
2018-03-19T16:40:37.990Z,97398.28
2018-03-19T16:43:08.363Z,97397.45
2018-03-19T16:45:37.994Z,97400.38
2018-03-19T16:48:14.256Z,97390.89
2018-03-19T16:50:44.613Z,97388.86
2018-03-19T16:53:14.394Z,97391.68
2018-03-19T16:55:44.476Z,97390.09
2018-03-19T16:58:15.564Z,97395.63
2018-03-19T17:00:44.996Z,97403.99
2018-03-19T17:05:48.667Z,97399.83
2018-03-19T17:08:17.954Z,97400.27
2018-03-19T17:10:47.254Z,97409.02
2018-03-19T17:13:18.007Z,97409.87
2018-03-19T17:15:47.208Z,97410.64
2018-03-19T17:18:16.534Z,97411.72
2018-03-19T17:20:46.185Z,97418.81
2018-03-19T17:23:15.582Z,97418.06
2018-03-19T17:25:44.787Z,97426.23
2018-03-19T17:28:14.500Z,97425.58
2018-03-19T17:30:44.329Z,97431.28
2018-03-19T17:33:14.038Z,97435.48
2018-03-19T17:35:45.781Z,97439.36
2018-03-19T17:38:15.052Z,97440.37
2018-03-19T17:40:46.661Z,97442.05
2018-03-19T17:43:16.319Z,97440.72
2018-03-19T17:45:45.661Z,97449.96
2018-03-19T17:48:15.050Z,97452.22
2018-03-19T17:50:44.676Z,97458.09
2018-03-19T17:53:14.325Z,97454.70
2018-03-19T17:55:43.887Z,97461.01
2018-03-19T17:58:13.558Z,97458.75
2018-03-19T18:00:43.357Z,97465.42
2018-03-19T18:03:13.237Z,97464.71
2018-03-19T18:05:44.960Z,97471.66
2018-03-19T18:08:14.090Z,97473.62
2018-03-19T18:10:43.549Z,97471.39
2018-03-19T18:13:14.338Z,97479.41
2018-03-19T18:15:44.818Z,97481.49
2018-03-19T18:18:14.006Z,97480.25
2018-03-19T18:20:44.766Z,97485.35
2018-03-19T18:23:14.416Z,97486.64
2018-03-19T18:25:44.783Z,97490.55
2018-03-19T18:28:16.560Z,97500.36
2018-03-19T18:30:46.123Z,97502.65
2018-03-19T18:33:16.288Z,97507.64
2018-03-19T18:35:53.718Z,97506.91
2018-03-19T18:38:22.929Z,97504.09
2018-03-19T18:40:54.635Z,97513.05
2018-03-19T18:43:24.229Z,97508.27
2018-03-19T18:45:53.578Z,97514.94
2018-03-19T18:48:27.023Z,97505.17
2018-03-19T18:50:56.650Z,97515.72
2018-03-19T18:53:26.045Z,97522.83
2018-03-19T18:55:55.086Z,97522.42
2018-03-19T18:58:24.570Z,97518.19
2018-03-19T19:00:55.712Z,97522.24
2018-03-19T19:03:25.089Z,97523.30
2018-03-19T19:05:54.782Z,97526.13
2018-03-19T19:08:24.140Z,97532.31
2018-03-19T19:10:53.271Z,97539.69
2018-03-19T19:13:26.894Z,97533.88
2018-03-19T19:15:57.457Z,97532.66
2018-03-19T19:18:41.262Z,97536.03
2018-03-19T19:21:10.956Z,97543.40
2018-03-19T19:23:40.851Z,97541.69
2018-03-19T19:26:10.303Z,97542.42
2018-03-19T19:28:39.999Z,97543.47
2018-03-19T19:31:09.499Z,97540.27
2018-03-19T19:33:38.884Z,97539.69
2018-03-19T19:36:08.530Z,97543.66
2018-03-19T19:38:37.844Z,97545.15
2018-03-19T19:41:07.193Z,97545.95
2018-03-19T19:43:39.059Z,97546.44
2018-03-19T19:46:11.527Z,97546.53
2018-03-19T19:48:40.691Z,97544.08
2018-03-19T19:51:12.697Z,97541.92
2018-03-19T19:53:41.738Z,97545.36
2018-03-19T19:56:11.137Z,97548.09
2018-03-19T19:58:41.687Z,97548.28
2018-03-19T20:01:11.973Z,97548.09
2018-03-19T20:03:41.059Z,97552.90
2018-03-19T20:06:10.721Z,97548.50
2018-03-19T20:08:39.920Z,97552.87
2018-03-19T20:11:09.425Z,97556.74
2018-03-19T20:13:40.718Z,97547.53
2018-03-19T20:16:09.863Z,97556.12
2018-03-19T20:18:41.685Z,97550.59
2018-03-19T20:21:10.968Z,97553.67
2018-03-19T20:23:41.676Z,97549.45
2018-03-19T20:26:10.928Z,97547.23
2018-03-19T20:28:40.175Z,97552.91
2018-03-19T20:31:09.364Z,97554.04
2018-03-19T20:33:43.507Z,97558.77
2018-03-19T20:36:12.728Z,97555.22
2018-03-19T20:38:43.438Z,97556.76
2018-03-19T20:41:13.372Z,97550.13
2018-03-19T20:43:43.313Z,97549.73
2018-03-19T20:46:13.332Z,97546.46
2018-03-19T20:48:43.540Z,97554.36
2018-03-19T20:51:13.084Z,97549.89
2018-03-19T20:53:43.251Z,97552.81
2018-03-19T20:56:14.878Z,97552.47
2018-03-19T20:58:44.118Z,97563.39
2018-03-19T21:01:14.070Z,97565.30
2018-03-19T21:03:43.588Z,97555.08
2018-03-19T21:08:37.980Z,97566.38
2018-03-19T21:11:08.330Z,97564.49
2018-03-19T21:13:38.585Z,97562.53
2018-03-19T21:16:08.608Z,97563.36
2018-03-19T21:18:38.108Z,97561.47
2018-03-19T21:21:07.269Z,97562.25
2018-03-19T21:23:36.632Z,97566.19
2018-03-19T21:26:08.187Z,97566.28
2018-03-19T21:28:41.577Z,97571.45
2018-03-19T21:31:11.429Z,97571.44
2018-03-19T21:33:40.894Z,97576.91
2018-03-19T21:36:10.566Z,97573.41
2018-03-19T21:38:41.842Z,97581.03
2018-03-19T21:41:10.951Z,97569.28
2018-03-19T21:43:40.627Z,97571.78
2018-03-19T21:46:11.235Z,97568.91
2018-03-19T21:48:40.378Z,97565.44
2018-03-19T21:51:11.735Z,97572.21
2018-03-19T21:53:45.857Z,97574.41
2018-03-19T21:56:15.398Z,97569.61
2018-03-19T21:58:46.198Z,97572.95
2018-03-19T22:01:15.430Z,97566.81
2018-03-19T22:03:49.915Z,97563.58
2018-03-19T22:06:32.160Z,97568.26
2018-03-19T22:09:37.907Z,97567.13
2018-03-19T22:13:36.385Z,97569.00
2018-03-19T22:18:08.518Z,97571.76
2018-03-19T22:20:41.225Z,97566.06
2018-03-19T22:28:26.258Z,97569.33
2018-03-19T22:30:57.145Z,97576.72
2018-03-19T22:33:29.927Z,97579.20
2018-03-19T22:36:00.330Z,97583.25
2018-03-19T22:38:30.172Z,97586.25
2018-03-19T22:40:59.270Z,97585.48
2018-03-19T22:43:28.858Z,97582.23
2018-03-19T22:45:59.441Z,97583.63
2018-03-19T22:48:31.162Z,97584.39
2018-03-19T22:51:02.504Z,97582.56
2018-03-19T22:53:31.681Z,97587.91
2018-03-19T22:56:03.082Z,97588.98
2018-03-19T22:58:33.154Z,97588.92
2018-03-19T23:01:02.280Z,97592.61
2018-03-19T23:03:31.771Z,97591.66
2018-03-19T23:06:01.016Z,97586.42
2018-03-19T23:08:30.511Z,97591.91
2018-03-19T23:10:59.681Z,97584.73
2018-03-19T23:13:28.763Z,97591.74
2018-03-19T23:15:57.950Z,97586.28
2018-03-19T23:18:28.257Z,97584.80
2018-03-19T23:20:59.624Z,97587.14
2018-03-19T23:23:29.009Z,97584.55
2018-03-19T23:25:58.111Z,97587.72
2018-03-19T23:28:27.087Z,97586.55
2018-03-19T23:30:59.581Z,97589.67
2018-03-19T23:33:28.779Z,97585.59
2018-03-19T23:35:58.030Z,97588.94
2018-03-19T23:38:27.133Z,97582.56
2018-03-19T23:40:56.129Z,97589.69
2018-03-19T23:43:25.721Z,97586.61
2018-03-19T23:45:55.090Z,97595.51
2018-03-19T23:48:31.605Z,97588.14
2018-03-19T23:51:00.939Z,97592.77
2018-03-19T23:53:30.185Z,97590.71
2018-03-19T23:55:59.486Z,97591.42
2018-03-19T23:58:28.604Z,97595.72
